sensor_id;sensor_type;location;lat;lon;timestamp;temperature;humidity
17128;DHT22;8679;50.842;4.322;2022-08-18T00:01:08;19.10;99.90
17128;DHT22;8679;50.842;4.322;2022-08-18T00:03:34;19.10;99.90
17128;DHT22;8679;50.842;4.322;2022-08-18T00:06:00;19.10;99.90
17128;DHT22;8679;50.842;4.322;2022-08-18T00:08:26;19.10;99.90
17128;DHT22;8679;50.842;4.322;2022-08-18T00:10:54;19.10;99.90
17128;DHT22;8679;50.842;4.322;2022-08-18T00:13:20;19.10;99.90
17128;DHT22;8679;50.842;4.322;2022-08-18T00:15:46;19.00;99.90
17128;DHT22;8679;50.842;4.322;2022-08-18T00:18:12;19.00;99.90
17128;DHT22;8679;50.842;4.322;2022-08-18T00:20:39;19.00;99.90
17128;DHT22;8679;50.842;4.322;2022-08-18T00:23:05;19.00;99.90
17128;DHT22;8679;50.842;4.322;2022-08-18T00:25:31;19.00;99.90
17128;DHT22;8679;50.842;4.322;2022-08-18T00:27:57;19.00;99.90
17128;DHT22;8679;50.842;4.322;2022-08-18T00:30:22;19.00;99.90
17128;DHT22;8679;50.842;4.322;2022-08-18T00:32:51;19.00;99.90
17128;DHT22;8679;50.842;4.322;2022-08-18T00:35:20;19.00;99.90
17128;DHT22;8679;50.842;4.322;2022-08-18T00:37:50;19.00;99.90
17128;DHT22;8679;50.842;4.322;2022-08-18T00:40:23;19.00;99.90
17128;DHT22;8679;50.842;4.322;2022-08-18T00:42:56;19.00;99.90
17128;DHT22;8679;50.842;4.322;2022-08-18T00:45:28;19.00;99.90
17128;DHT22;8679;50.842;4.322;2022-08-18T00:47:55;19.00;99.90
17128;DHT22;8679;50.842;4.322;2022-08-18T00:50:32;19.00;99.90
17128;DHT22;8679;50.842;4.322;2022-08-18T00:53:52;19.00;99.90
17128;DHT22;8679;50.842;4.322;2022-08-18T00:55:52;19.00;99.90
17128;DHT22;8679;50.842;4.322;2022-08-18T00:58:34;19.00;99.90
17128;DHT22;8679;50.842;4.322;2022-08-18T01:01:04;19.00;99.90
17128;DHT22;8679;50.842;4.322;2022-08-18T01:03:31;19.00;99.90
17128;DHT22;8679;50.842;4.322;2022-08-18T01:06:19;18.90;99.90
17128;DHT22;8679;50.842;4.322;2022-08-18T01:08:48;18.90;99.90
17128;DHT22;8679;50.842;4.322;2022-08-18T01:11:13;18.90;99.90
17128;DHT22;8679;50.842;4.322;2022-08-18T01:13:40;18.90;99.90
17128;DHT22;8679;50.842;4.322;2022-08-18T01:16:07;18.90;99.90
17128;DHT22;8679;50.842;4.322;2022-08-18T01:18:52;18.80;99.90
17128;DHT22;8679;50.842;4.322;2022-08-18T01:21:41;18.80;99.90
17128;DHT22;8679;50.842;4.322;2022-08-18T01:24:27;18.80;99.90
17128;DHT22;8679;50.842;4.322;2022-08-18T01:27:14;18.80;99.90
17128;DHT22;8679;50.842;4.322;2022-08-18T01:29:43;18.90;99.90
17128;DHT22;8679;50.842;4.322;2022-08-18T01:32:10;18.90;99.90
17128;DHT22;8679;50.842;4.322;2022-08-18T01:34:37;18.90;99.90
17128;DHT22;8679;50.842;4.322;2022-08-18T01:37:03;18.90;99.90
17128;DHT22;8679;50.842;4.322;2022-08-18T01:39:30;18.90;99.90
17128;DHT22;8679;50.842;4.322;2022-08-18T01:41:56;19.00;99.90
17128;DHT22;8679;50.842;4.322;2022-08-18T01:44:21;19.00;99.90
17128;DHT22;8679;50.842;4.322;2022-08-18T01:46:47;19.00;99.90
17128;DHT22;8679;50.842;4.322;2022-08-18T01:49:13;19.10;99.90
17128;DHT22;8679;50.842;4.322;2022-08-18T01:51:39;19.10;99.90
17128;DHT22;8679;50.842;4.322;2022-08-18T01:54:12;19.20;99.90
17128;DHT22;8679;50.842;4.322;2022-08-18T01:56:39;19.20;99.90
17128;DHT22;8679;50.842;4.322;2022-08-18T01:59:05;19.20;99.90
17128;DHT22;8679;50.842;4.322;2022-08-18T02:01:37;19.20;99.90
17128;DHT22;8679;50.842;4.322;2022-08-18T02:04:04;19.20;99.90
17128;DHT22;8679;50.842;4.322;2022-08-18T02:06:32;19.20;99.90
17128;DHT22;8679;50.842;4.322;2022-08-18T02:08:58;19.20;99.90
17128;DHT22;8679;50.842;4.322;2022-08-18T02:11:24;19.20;99.90
17128;DHT22;8679;50.842;4.322;2022-08-18T02:13:49;19.20;99.90
17128;DHT22;8679;50.842;4.322;2022-08-18T02:16:15;19.20;99.90
17128;DHT22;8679;50.842;4.322;2022-08-18T02:18:41;19.20;99.90
17128;DHT22;8679;50.842;4.322;2022-08-18T02:21:11;19.20;99.90
17128;DHT22;8679;50.842;4.322;2022-08-18T02:23:40;19.20;99.90
17128;DHT22;8679;50.842;4.322;2022-08-18T02:26:08;19.20;99.90
17128;DHT22;8679;50.842;4.322;2022-08-18T02:28:34;19.20;99.90
17128;DHT22;8679;50.842;4.322;2022-08-18T02:31:09;19.20;99.90
17128;DHT22;8679;50.842;4.322;2022-08-18T02:33:34;19.20;99.90
17128;DHT22;8679;50.842;4.322;2022-08-18T02:36:00;19.20;99.90
17128;DHT22;8679;50.842;4.322;2022-08-18T02:38:27;19.20;99.90
17128;DHT22;8679;50.842;4.322;2022-08-18T02:40:59;19.10;99.90
17128;DHT22;8679;50.842;4.322;2022-08-18T02:43:25;19.10;99.90
17128;DHT22;8679;50.842;4.322;2022-08-18T02:45:51;19.00;99.90
17128;DHT22;8679;50.842;4.322;2022-08-18T02:48:17;19.00;99.90
17128;DHT22;8679;50.842;4.322;2022-08-18T02:51:15;18.90;99.90
17128;DHT22;8679;50.842;4.322;2022-08-18T02:53:43;18.90;99.90
17128;DHT22;8679;50.842;4.322;2022-08-18T02:56:11;18.90;99.90
17128;DHT22;8679;50.842;4.322;2022-08-18T02:58:45;18.80;99.90
17128;DHT22;8679;50.842;4.322;2022-08-18T03:01:11;18.80;99.90
17128;DHT22;8679;50.842;4.322;2022-08-18T03:03:37;18.80;99.90
17128;DHT22;8679;50.842;4.322;2022-08-18T03:06:03;18.70;99.90
17128;DHT22;8679;50.842;4.322;2022-08-18T03:08:29;18.60;99.90
17128;DHT22;8679;50.842;4.322;2022-08-18T03:10:54;18.60;99.90
17128;DHT22;8679;50.842;4.322;2022-08-18T03:13:20;18.50;99.90
17128;DHT22;8679;50.842;4.322;2022-08-18T03:15:46;18.50;99.90
17128;DHT22;8679;50.842;4.322;2022-08-18T03:18:12;18.50;99.90
17128;DHT22;8679;50.842;4.322;2022-08-18T03:20:38;18.40;99.90
17128;DHT22;8679;50.842;4.322;2022-08-18T03:23:05;18.30;99.90
17128;DHT22;8679;50.842;4.322;2022-08-18T03:25:30;18.30;99.90
17128;DHT22;8679;50.842;4.322;2022-08-18T03:27:56;18.30;99.90
17128;DHT22;8679;50.842;4.322;2022-08-18T03:30:22;18.30;99.90
17128;DHT22;8679;50.842;4.322;2022-08-18T03:32:48;18.30;99.90
17128;DHT22;8679;50.842;4.322;2022-08-18T03:35:15;18.20;99.90
17128;DHT22;8679;50.842;4.322;2022-08-18T03:37:41;18.20;99.90
17128;DHT22;8679;50.842;4.322;2022-08-18T03:40:08;18.20;99.90
17128;DHT22;8679;50.842;4.322;2022-08-18T03:42:35;18.20;99.90
17128;DHT22;8679;50.842;4.322;2022-08-18T03:45:01;18.20;99.90
17128;DHT22;8679;50.842;4.322;2022-08-18T03:47:27;18.20;99.90
17128;DHT22;8679;50.842;4.322;2022-08-18T03:49:52;18.20;99.90
17128;DHT22;8679;50.842;4.322;2022-08-18T03:52:18;18.30;99.90
17128;DHT22;8679;50.842;4.322;2022-08-18T03:54:44;18.30;99.90
17128;DHT22;8679;50.842;4.322;2022-08-18T03:57:11;18.40;99.90
17128;DHT22;8679;50.842;4.322;2022-08-18T03:59:38;18.50;99.90
17128;DHT22;8679;50.842;4.322;2022-08-18T04:02:09;18.50;99.90
17128;DHT22;8679;50.842;4.322;2022-08-18T04:04:35;18.60;99.90
17128;DHT22;8679;50.842;4.322;2022-08-18T04:07:06;18.60;99.90
17128;DHT22;8679;50.842;4.322;2022-08-18T04:09:33;18.70;99.90
17128;DHT22;8679;50.842;4.322;2022-08-18T04:12:05;18.70;99.90
17128;DHT22;8679;50.842;4.322;2022-08-18T04:14:38;18.80;99.90
17128;DHT22;8679;50.842;4.322;2022-08-18T04:17:04;18.80;99.90
17128;DHT22;8679;50.842;4.322;2022-08-18T04:19:30;18.80;99.90
17128;DHT22;8679;50.842;4.322;2022-08-18T04:21:59;18.80;99.90
17128;DHT22;8679;50.842;4.322;2022-08-18T04:24:27;18.80;99.90
17128;DHT22;8679;50.842;4.322;2022-08-18T04:26:54;18.90;99.90
17128;DHT22;8679;50.842;4.322;2022-08-18T04:29:20;18.90;99.90
17128;DHT22;8679;50.842;4.322;2022-08-18T04:31:46;19.00;99.90
17128;DHT22;8679;50.842;4.322;2022-08-18T04:34:13;18.90;99.90
17128;DHT22;8679;50.842;4.322;2022-08-18T04:36:39;19.00;99.90
17128;DHT22;8679;50.842;4.322;2022-08-18T04:39:08;19.00;99.90
17128;DHT22;8679;50.842;4.322;2022-08-18T04:41:35;19.00;99.90
17128;DHT22;8679;50.842;4.322;2022-08-18T04:44:04;19.00;99.90
17128;DHT22;8679;50.842;4.322;2022-08-18T04:46:34;19.00;99.90
17128;DHT22;8679;50.842;4.322;2022-08-18T04:49:00;19.00;99.90
17128;DHT22;8679;50.842;4.322;2022-08-18T04:51:28;19.00;99.90
17128;DHT22;8679;50.842;4.322;2022-08-18T04:53:55;19.00;99.90
17128;DHT22;8679;50.842;4.322;2022-08-18T04:59:00;18.90;99.90
17128;DHT22;8679;50.842;4.322;2022-08-18T05:01:30;18.90;99.90
17128;DHT22;8679;50.842;4.322;2022-08-18T05:03:59;18.90;99.90
17128;DHT22;8679;50.842;4.322;2022-08-18T05:06:26;18.90;99.90
17128;DHT22;8679;50.842;4.322;2022-08-18T05:08:58;19.00;99.90
17128;DHT22;8679;50.842;4.322;2022-08-18T05:11:29;18.90;99.90
17128;DHT22;8679;50.842;4.322;2022-08-18T05:13:58;18.80;99.90
17128;DHT22;8679;50.842;4.322;2022-08-18T05:16:25;18.80;99.90
17128;DHT22;8679;50.842;4.322;2022-08-18T05:18:51;18.70;99.90
17128;DHT22;8679;50.842;4.322;2022-08-18T05:21:19;18.70;99.90
17128;DHT22;8679;50.842;4.322;2022-08-18T05:23:47;18.70;99.90
17128;DHT22;8679;50.842;4.322;2022-08-18T05:26:15;18.60;99.90
17128;DHT22;8679;50.842;4.322;2022-08-18T05:28:42;18.60;99.90
17128;DHT22;8679;50.842;4.322;2022-08-18T05:31:14;18.60;99.90
17128;DHT22;8679;50.842;4.322;2022-08-18T05:33:41;18.50;99.90
17128;DHT22;8679;50.842;4.322;2022-08-18T05:39:10;18.50;99.90
17128;DHT22;8679;50.842;4.322;2022-08-18T05:41:39;18.50;99.90
17128;DHT22;8679;50.842;4.322;2022-08-18T05:44:07;18.40;99.90
17128;DHT22;8679;50.842;4.322;2022-08-18T05:46:43;18.40;99.90
17128;DHT22;8679;50.842;4.322;2022-08-18T05:49:11;18.40;99.90
17128;DHT22;8679;50.842;4.322;2022-08-18T05:51:42;18.50;99.90
17128;DHT22;8679;50.842;4.322;2022-08-18T05:54:09;18.50;99.90
17128;DHT22;8679;50.842;4.322;2022-08-18T05:56:57;18.50;99.90
17128;DHT22;8679;50.842;4.322;2022-08-18T05:59:36;18.60;99.90
17128;DHT22;8679;50.842;4.322;2022-08-18T06:04:54;18.70;99.90
17128;DHT22;8679;50.842;4.322;2022-08-18T06:07:36;18.70;99.90
17128;DHT22;8679;50.842;4.322;2022-08-18T06:10:05;18.70;99.90
17128;DHT22;8679;50.842;4.322;2022-08-18T06:12:32;18.80;99.90
17128;DHT22;8679;50.842;4.322;2022-08-18T06:15:28;18.80;99.90
17128;DHT22;8679;50.842;4.322;2022-08-18T06:27:01;19.00;99.90
17128;DHT22;8679;50.842;4.322;2022-08-18T06:29:39;19.00;99.90
17128;DHT22;8679;50.842;4.322;2022-08-18T06:32:45;19.10;99.90
17128;DHT22;8679;50.842;4.322;2022-08-18T06:43:48;19.30;99.90
17128;DHT22;8679;50.842;4.322;2022-08-18T06:46:19;19.30;99.90
17128;DHT22;8679;50.842;4.322;2022-08-18T06:48:53;19.40;99.90
17128;DHT22;8679;50.842;4.322;2022-08-18T06:51:21;19.40;99.90
17128;DHT22;8679;50.842;4.322;2022-08-18T07:01:55;19.90;99.90
17128;DHT22;8679;50.842;4.322;2022-08-18T07:08:40;20.20;99.90
17128;DHT22;8679;50.842;4.322;2022-08-18T07:11:24;20.40;99.90
17128;DHT22;8679;50.842;4.322;2022-08-18T07:13:56;20.60;99.90
17128;DHT22;8679;50.842;4.322;2022-08-18T07:19:04;21.00;99.90
17128;DHT22;8679;50.842;4.322;2022-08-18T07:21:32;21.10;99.90
17128;DHT22;8679;50.842;4.322;2022-08-18T07:24:03;21.20;99.90
17128;DHT22;8679;50.842;4.322;2022-08-18T07:26:31;21.30;99.90
17128;DHT22;8679;50.842;4.322;2022-08-18T07:29:17;21.40;99.90
17128;DHT22;8679;50.842;4.322;2022-08-18T07:31:46;21.50;99.90
17128;DHT22;8679;50.842;4.322;2022-08-18T07:34:30;21.50;99.90
17128;DHT22;8679;50.842;4.322;2022-08-18T07:37:05;21.50;99.90
17128;DHT22;8679;50.842;4.322;2022-08-18T07:39:58;21.50;99.90
17128;DHT22;8679;50.842;4.322;2022-08-18T07:42:45;21.40;99.90
17128;DHT22;8679;50.842;4.322;2022-08-18T07:46:00;21.40;99.90
17128;DHT22;8679;50.842;4.322;2022-08-18T07:48:24;21.30;99.90
17128;DHT22;8679;50.842;4.322;2022-08-18T07:51:33;21.30;99.90
17128;DHT22;8679;50.842;4.322;2022-08-18T07:54:07;21.40;99.90
17128;DHT22;8679;50.842;4.322;2022-08-18T07:56:55;21.50;99.90
17128;DHT22;8679;50.842;4.322;2022-08-18T08:03:08;21.40;99.90
17128;DHT22;8679;50.842;4.322;2022-08-18T08:08:17;21.40;99.90
17128;DHT22;8679;50.842;4.322;2022-08-18T08:11:14;21.40;99.90
17128;DHT22;8679;50.842;4.322;2022-08-18T08:16:27;21.50;99.90
17128;DHT22;8679;50.842;4.322;2022-08-18T08:21:29;21.50;99.90
17128;DHT22;8679;50.842;4.322;2022-08-18T08:24:12;21.50;99.90
17128;DHT22;8679;50.842;4.322;2022-08-18T08:27:05;21.50;99.90
17128;DHT22;8679;50.842;4.322;2022-08-18T08:32:32;21.60;99.90
17128;DHT22;8679;50.842;4.322;2022-08-18T08:40:21;21.90;99.90
17128;DHT22;8679;50.842;4.322;2022-08-18T08:42:59;22.10;99.90
17128;DHT22;8679;50.842;4.322;2022-08-18T08:45:38;22.30;99.90
17128;DHT22;8679;50.842;4.322;2022-08-18T08:48:16;22.70;99.90
17128;DHT22;8679;50.842;4.322;2022-08-18T08:50:52;22.90;99.90
17128;DHT22;8679;50.842;4.322;2022-08-18T08:53:34;23.10;99.90
17128;DHT22;8679;50.842;4.322;2022-08-18T08:56:09;23.20;99.90
17128;DHT22;8679;50.842;4.322;2022-08-18T08:58:44;23.30;99.90
17128;DHT22;8679;50.842;4.322;2022-08-18T09:04:37;23.70;99.90
17128;DHT22;8679;50.842;4.322;2022-08-18T09:07:30;23.70;99.90
17128;DHT22;8679;50.842;4.322;2022-08-18T09:10:47;23.80;99.90
17128;DHT22;8679;50.842;4.322;2022-08-18T09:15:44;23.90;99.90
17128;DHT22;8679;50.842;4.322;2022-08-18T09:21:12;24.20;99.90
17128;DHT22;8679;50.842;4.322;2022-08-18T09:23:46;24.20;99.90
17128;DHT22;8679;50.842;4.322;2022-08-18T09:26:26;24.30;99.90
17128;DHT22;8679;50.842;4.322;2022-08-18T09:29:20;24.40;99.90
17128;DHT22;8679;50.842;4.322;2022-08-18T09:37:50;24.20;99.90
17128;DHT22;8679;50.842;4.322;2022-08-18T09:41:04;24.50;99.90
17128;DHT22;8679;50.842;4.322;2022-08-18T09:52:45;25.10;99.90
17128;DHT22;8679;50.842;4.322;2022-08-18T09:55:05;25.20;99.90
17128;DHT22;8679;50.842;4.322;2022-08-18T09:57:36;25.30;99.90
17128;DHT22;8679;50.842;4.322;2022-08-18T10:07:48;25.60;99.90
17128;DHT22;8679;50.842;4.322;2022-08-18T10:19:15;25.30;99.90
17128;DHT22;8679;50.842;4.322;2022-08-18T10:24:47;25.40;99.90
17128;DHT22;8679;50.842;4.322;2022-08-18T10:29:57;25.70;99.90
17128;DHT22;8679;50.842;4.322;2022-08-18T10:32:35;26.00;99.90
17128;DHT22;8679;50.842;4.322;2022-08-18T10:35:02;26.20;99.90
17128;DHT22;8679;50.842;4.322;2022-08-18T10:37:42;26.60;99.90
17128;DHT22;8679;50.842;4.322;2022-08-18T10:43:09;26.90;99.90
17128;DHT22;8679;50.842;4.322;2022-08-18T10:45:48;27.00;99.90
17128;DHT22;8679;50.842;4.322;2022-08-18T10:48:26;26.90;99.90
17128;DHT22;8679;50.842;4.322;2022-08-18T10:56:45;26.30;99.90
17128;DHT22;8679;50.842;4.322;2022-08-18T11:02:02;25.90;99.90
17128;DHT22;8679;50.842;4.322;2022-08-18T11:04:51;25.60;99.90
17128;DHT22;8679;50.842;4.322;2022-08-18T11:07:28;25.70;99.90
17128;DHT22;8679;50.842;4.322;2022-08-18T11:09:56;25.90;99.90
17128;DHT22;8679;50.842;4.322;2022-08-18T11:12:46;26.10;99.90
17128;DHT22;8679;50.842;4.322;2022-08-18T11:23:37;26.90;99.90
17128;DHT22;8679;50.842;4.322;2022-08-18T11:26:14;27.40;99.90
17128;DHT22;8679;50.842;4.322;2022-08-18T11:28:39;27.90;99.90
17128;DHT22;8679;50.842;4.322;2022-08-18T11:31:05;27.90;99.90
17128;DHT22;8679;50.842;4.322;2022-08-18T11:33:33;27.90;99.90
17128;DHT22;8679;50.842;4.322;2022-08-18T11:36:00;28.00;99.90
17128;DHT22;8679;50.842;4.322;2022-08-18T11:38:27;28.10;99.90
17128;DHT22;8679;50.842;4.322;2022-08-18T11:41:09;27.50;99.90
17128;DHT22;8679;50.842;4.322;2022-08-18T11:43:36;27.00;99.90
17128;DHT22;8679;50.842;4.322;2022-08-18T11:46:27;26.90;99.90
17128;DHT22;8679;50.842;4.322;2022-08-18T11:48:52;26.80;99.90
17128;DHT22;8679;50.842;4.322;2022-08-18T11:51:24;27.00;99.90
17128;DHT22;8679;50.842;4.322;2022-08-18T11:54:00;27.30;99.90
17128;DHT22;8679;50.842;4.322;2022-08-18T11:56:27;27.60;99.90
17128;DHT22;8679;50.842;4.322;2022-08-18T12:01:39;28.30;99.90
17128;DHT22;8679;50.842;4.322;2022-08-18T12:04:37;28.70;99.90
17128;DHT22;8679;50.842;4.322;2022-08-18T12:07:13;29.10;99.90
17128;DHT22;8679;50.842;4.322;2022-08-18T12:09:45;29.40;99.90
17128;DHT22;8679;50.842;4.322;2022-08-18T12:12:31;29.20;99.90
17128;DHT22;8679;50.842;4.322;2022-08-18T12:15:02;28.00;99.90
17128;DHT22;8679;50.842;4.322;2022-08-18T12:17:30;28.00;99.90
17128;DHT22;8679;50.842;4.322;2022-08-18T12:19:57;28.10;99.90
17128;DHT22;8679;50.842;4.322;2022-08-18T12:22:27;27.90;99.90
17128;DHT22;8679;50.842;4.322;2022-08-18T12:24:53;27.90;99.90
17128;DHT22;8679;50.842;4.322;2022-08-18T12:27:22;28.30;99.90
17128;DHT22;8679;50.842;4.322;2022-08-18T12:29:49;28.80;99.90
17128;DHT22;8679;50.842;4.322;2022-08-18T12:32:18;29.70;99.90
17128;DHT22;8679;50.842;4.322;2022-08-18T12:34:44;30.30;99.90
17128;DHT22;8679;50.842;4.322;2022-08-18T12:37:15;30.40;99.90
17128;DHT22;8679;50.842;4.322;2022-08-18T12:39:42;31.20;99.90
17128;DHT22;8679;50.842;4.322;2022-08-18T12:42:10;32.00;99.90
17128;DHT22;8679;50.842;4.322;2022-08-18T12:44:36;32.40;99.90
17128;DHT22;8679;50.842;4.322;2022-08-18T12:47:06;32.50;99.60
17128;DHT22;8679;50.842;4.322;2022-08-18T12:49:35;32.40;97.00
17128;DHT22;8679;50.842;4.322;2022-08-18T12:52:00;32.20;96.20
17128;DHT22;8679;50.842;4.322;2022-08-18T12:54:26;31.80;96.70
17128;DHT22;8679;50.842;4.322;2022-08-18T12:56:53;31.30;96.20
17128;DHT22;8679;50.842;4.322;2022-08-18T12:59:19;30.90;97.90
17128;DHT22;8679;50.842;4.322;2022-08-18T13:01:45;30.40;99.50
17128;DHT22;8679;50.842;4.322;2022-08-18T13:04:11;29.80;99.90
17128;DHT22;8679;50.842;4.322;2022-08-18T13:06:39;29.40;99.90
17128;DHT22;8679;50.842;4.322;2022-08-18T13:09:06;28.80;99.90
17128;DHT22;8679;50.842;4.322;2022-08-18T13:11:32;28.70;99.90
17128;DHT22;8679;50.842;4.322;2022-08-18T13:13:58;28.60;99.90
17128;DHT22;8679;50.842;4.322;2022-08-18T13:16:25;28.50;99.90
17128;DHT22;8679;50.842;4.322;2022-08-18T13:19:02;28.60;99.90
17128;DHT22;8679;50.842;4.322;2022-08-18T13:21:36;29.30;99.90
17128;DHT22;8679;50.842;4.322;2022-08-18T13:24:02;30.20;99.90
17128;DHT22;8679;50.842;4.322;2022-08-18T13:26:35;30.90;99.90
17128;DHT22;8679;50.842;4.322;2022-08-18T13:29:02;31.10;99.90
17128;DHT22;8679;50.842;4.322;2022-08-18T13:31:29;31.30;98.60
17128;DHT22;8679;50.842;4.322;2022-08-18T13:33:56;31.20;98.60
17128;DHT22;8679;50.842;4.322;2022-08-18T13:36:24;31.70;98.80
17128;DHT22;8679;50.842;4.322;2022-08-18T13:38:51;32.50;96.10
17128;DHT22;8679;50.842;4.322;2022-08-18T13:41:19;32.40;92.50
17128;DHT22;8679;50.842;4.322;2022-08-18T13:43:47;32.40;91.60
17128;DHT22;8679;50.842;4.322;2022-08-18T13:46:16;32.80;90.50
17128;DHT22;8679;50.842;4.322;2022-08-18T13:48:43;32.20;85.20
17128;DHT22;8679;50.842;4.322;2022-08-18T13:51:15;31.70;89.70
17128;DHT22;8679;50.842;4.322;2022-08-18T13:53:42;30.80;92.00
17128;DHT22;8679;50.842;4.322;2022-08-18T13:56:08;30.80;94.20
17128;DHT22;8679;50.842;4.322;2022-08-18T13:58:35;30.60;94.20
17128;DHT22;8679;50.842;4.322;2022-08-18T14:01:03;30.50;95.10
17128;DHT22;8679;50.842;4.322;2022-08-18T14:03:30;30.80;95.10
17128;DHT22;8679;50.842;4.322;2022-08-18T14:05:56;31.00;95.80
17128;DHT22;8679;50.842;4.322;2022-08-18T14:08:28;31.50;94.80
17128;DHT22;8679;50.842;4.322;2022-08-18T14:11:00;31.10;95.40
17128;DHT22;8679;50.842;4.322;2022-08-18T14:13:27;30.90;95.90
17128;DHT22;8679;50.842;4.322;2022-08-18T14:15:55;31.00;96.20
17128;DHT22;8679;50.842;4.322;2022-08-18T14:18:24;31.70;96.60
17128;DHT22;8679;50.842;4.322;2022-08-18T14:20:51;32.10;94.70
17128;DHT22;8679;50.842;4.322;2022-08-18T14:23:35;31.80;95.00
17128;DHT22;8679;50.842;4.322;2022-08-18T14:26:19;32.00;95.70
17128;DHT22;8679;50.842;4.322;2022-08-18T14:29:03;32.50;96.40
17128;DHT22;8679;50.842;4.322;2022-08-18T14:31:31;32.50;94.50
17128;DHT22;8679;50.842;4.322;2022-08-18T14:33:56;32.50;93.70
17128;DHT22;8679;50.842;4.322;2022-08-18T14:36:22;32.10;95.40
17128;DHT22;8679;50.842;4.322;2022-08-18T14:38:49;32.40;95.30
17128;DHT22;8679;50.842;4.322;2022-08-18T14:41:15;32.50;95.70
17128;DHT22;8679;50.842;4.322;2022-08-18T14:43:41;32.10;94.70
17128;DHT22;8679;50.842;4.322;2022-08-18T14:46:09;31.30;95.60
17128;DHT22;8679;50.842;4.322;2022-08-18T14:48:35;31.10;97.20
17128;DHT22;8679;50.842;4.322;2022-08-18T14:51:02;31.20;98.10
17128;DHT22;8679;50.842;4.322;2022-08-18T14:53:30;31.10;98.80
17128;DHT22;8679;50.842;4.322;2022-08-18T14:55:57;30.50;99.00
17128;DHT22;8679;50.842;4.322;2022-08-18T14:58:28;30.00;99.90
17128;DHT22;8679;50.842;4.322;2022-08-18T15:00:55;30.90;99.90
17128;DHT22;8679;50.842;4.322;2022-08-18T15:03:22;31.80;99.50
17128;DHT22;8679;50.842;4.322;2022-08-18T15:05:48;32.80;97.60
17128;DHT22;8679;50.842;4.322;2022-08-18T15:08:14;33.10;95.20
17128;DHT22;8679;50.842;4.322;2022-08-18T15:10:41;33.00;94.40
17128;DHT22;8679;50.842;4.322;2022-08-18T15:13:07;32.80;94.40
17128;DHT22;8679;50.842;4.322;2022-08-18T15:15:34;32.50;94.30
17128;DHT22;8679;50.842;4.322;2022-08-18T15:17:59;32.30;94.80
17128;DHT22;8679;50.842;4.322;2022-08-18T15:20:26;32.30;94.10
17128;DHT22;8679;50.842;4.322;2022-08-18T15:22:52;32.30;93.60
17128;DHT22;8679;50.842;4.322;2022-08-18T15:25:36;32.30;94.20
17128;DHT22;8679;50.842;4.322;2022-08-18T15:28:13;32.80;93.20
17128;DHT22;8679;50.842;4.322;2022-08-18T15:30:43;33.20;91.50
17128;DHT22;8679;50.842;4.322;2022-08-18T15:33:08;33.70;90.00
17128;DHT22;8679;50.842;4.322;2022-08-18T15:35:35;34.70;86.50
17128;DHT22;8679;50.842;4.322;2022-08-18T15:38:01;35.20;81.10
17128;DHT22;8679;50.842;4.322;2022-08-18T15:40:28;34.70;74.80
17128;DHT22;8679;50.842;4.322;2022-08-18T15:42:56;34.90;76.60
17128;DHT22;8679;50.842;4.322;2022-08-18T15:45:35;35.70;69.70
17128;DHT22;8679;50.842;4.322;2022-08-18T15:48:03;35.70;65.90
17128;DHT22;8679;50.842;4.322;2022-08-18T15:50:29;34.30;69.30
17128;DHT22;8679;50.842;4.322;2022-08-18T15:52:57;34.10;70.80
17128;DHT22;8679;50.842;4.322;2022-08-18T15:55:25;34.40;69.40
17128;DHT22;8679;50.842;4.322;2022-08-18T15:57:51;34.70;70.30
17128;DHT22;8679;50.842;4.322;2022-08-18T16:00:18;34.80;67.40
17128;DHT22;8679;50.842;4.322;2022-08-18T16:02:53;35.20;66.60
17128;DHT22;8679;50.842;4.322;2022-08-18T16:05:24;35.40;65.20
17128;DHT22;8679;50.842;4.322;2022-08-18T16:07:51;35.50;62.40
17128;DHT22;8679;50.842;4.322;2022-08-18T16:10:19;36.20;60.00
17128;DHT22;8679;50.842;4.322;2022-08-18T16:12:46;36.70;57.80
17128;DHT22;8679;50.842;4.322;2022-08-18T16:15:14;36.80;57.30
17128;DHT22;8679;50.842;4.322;2022-08-18T16:17:41;37.30;53.90
17128;DHT22;8679;50.842;4.322;2022-08-18T16:20:07;37.30;51.70
17128;DHT22;8679;50.842;4.322;2022-08-18T16:22:34;36.90;50.20
17128;DHT22;8679;50.842;4.322;2022-08-18T16:25:04;36.00;51.10
17128;DHT22;8679;50.842;4.322;2022-08-18T16:27:31;34.80;53.50
17128;DHT22;8679;50.842;4.322;2022-08-18T16:29:59;35.10;53.30
17128;DHT22;8679;50.842;4.322;2022-08-18T16:32:25;36.10;52.30
17128;DHT22;8679;50.842;4.322;2022-08-18T16:34:51;36.90;49.80
17128;DHT22;8679;50.842;4.322;2022-08-18T16:37:17;37.60;47.80
17128;DHT22;8679;50.842;4.322;2022-08-18T16:39:43;36.80;46.90
17128;DHT22;8679;50.842;4.322;2022-08-18T16:42:09;37.00;46.00
17128;DHT22;8679;50.842;4.322;2022-08-18T16:44:36;36.80;46.50
17128;DHT22;8679;50.842;4.322;2022-08-18T16:47:05;36.40;44.90
17128;DHT22;8679;50.842;4.322;2022-08-18T16:49:32;36.70;45.20
17128;DHT22;8679;50.842;4.322;2022-08-18T16:51:59;36.70;44.30
17128;DHT22;8679;50.842;4.322;2022-08-18T16:54:28;36.90;44.30
17128;DHT22;8679;50.842;4.322;2022-08-18T16:56:54;37.70;44.30
17128;DHT22;8679;50.842;4.322;2022-08-18T16:59:20;37.30;44.00
17128;DHT22;8679;50.842;4.322;2022-08-18T17:02:05;36.40;45.60
17128;DHT22;8679;50.842;4.322;2022-08-18T17:04:49;36.00;47.00
17128;DHT22;8679;50.842;4.322;2022-08-18T17:07:17;35.90;48.40
17128;DHT22;8679;50.842;4.322;2022-08-18T17:09:42;35.70;48.50
17128;DHT22;8679;50.842;4.322;2022-08-18T17:12:09;35.80;48.50
17128;DHT22;8679;50.842;4.322;2022-08-18T17:14:36;35.60;48.80
17128;DHT22;8679;50.842;4.322;2022-08-18T17:17:02;35.60;48.60
17128;DHT22;8679;50.842;4.322;2022-08-18T17:19:31;35.20;48.80
17128;DHT22;8679;50.842;4.322;2022-08-18T17:21:59;35.10;48.80
17128;DHT22;8679;50.842;4.322;2022-08-18T17:24:25;34.90;49.60
17128;DHT22;8679;50.842;4.322;2022-08-18T17:27:21;34.70;50.70
17128;DHT22;8679;50.842;4.322;2022-08-18T17:30:15;34.80;51.70
17128;DHT22;8679;50.842;4.322;2022-08-18T17:32:56;34.90;51.30
17128;DHT22;8679;50.842;4.322;2022-08-18T17:35:36;34.70;51.60
17128;DHT22;8679;50.842;4.322;2022-08-18T17:40:55;34.30;52.00
17128;DHT22;8679;50.842;4.322;2022-08-18T17:43:24;34.30;52.50
17128;DHT22;8679;50.842;4.322;2022-08-18T17:45:59;33.30;53.40
17128;DHT22;8679;50.842;4.322;2022-08-18T17:48:54;32.90;54.90
17128;DHT22;8679;50.842;4.322;2022-08-18T17:51:36;32.80;56.10
17128;DHT22;8679;50.842;4.322;2022-08-18T17:57:06;32.30;58.60
17128;DHT22;8679;50.842;4.322;2022-08-18T18:00:05;32.30;59.10
17128;DHT22;8679;50.842;4.322;2022-08-18T18:02:37;32.20;59.60
17128;DHT22;8679;50.842;4.322;2022-08-18T18:05:09;31.90;61.40
17128;DHT22;8679;50.842;4.322;2022-08-18T18:10:33;31.20;64.30
17128;DHT22;8679;50.842;4.322;2022-08-18T18:15:54;29.70;75.90
17128;DHT22;8679;50.842;4.322;2022-08-18T18:18:44;29.00;87.70
17128;DHT22;8679;50.842;4.322;2022-08-18T18:21:19;28.50;94.30
17128;DHT22;8679;50.842;4.322;2022-08-18T18:23:47;28.00;97.50
17128;DHT22;8679;50.842;4.322;2022-08-18T18:26:32;27.80;99.90
17128;DHT22;8679;50.842;4.322;2022-08-18T18:32:04;27.20;99.90
17128;DHT22;8679;50.842;4.322;2022-08-18T18:37:05;26.80;99.90